createdAt,value
2023-05-15T00:00:44.634Z,34.45
2023-05-15T00:01:46.408Z,41.55
2023-05-15T00:02:49.425Z,44.80
2023-05-15T00:03:52.300Z,30.10
2023-05-15T00:04:54.241Z,37.65
2023-05-15T00:05:56.846Z,34.55
2023-05-15T00:06:58.761Z,31.58
2023-05-15T00:08:00.588Z,31.60
2023-05-15T00:09:02.287Z,34.53
2023-05-15T00:10:04.540Z,35.67
2023-05-15T00:11:06.333Z,35.85
2023-05-15T00:12:08.375Z,38.67
2023-05-15T00:13:10.079Z,33.75
2023-05-15T00:14:11.791Z,34.60
2023-05-15T00:15:13.518Z,35.85
2023-05-15T00:16:15.334Z,33.50
2023-05-15T00:17:17.099Z,33.10
2023-05-15T00:18:18.843Z,39.83
2023-05-15T00:19:20.992Z,38.22
2023-05-15T00:20:22.800Z,37.67
2023-05-15T00:21:24.580Z,35.72
2023-05-15T00:22:26.488Z,32.85
2023-05-15T00:23:28.228Z,37.25
2023-05-15T00:24:29.946Z,34.45
2023-05-15T00:25:31.714Z,33.35
2023-05-15T00:26:33.584Z,33.22
2023-05-15T00:27:35.408Z,36.25
2023-05-15T00:28:37.151Z,34.47
2023-05-15T00:29:38.858Z,33.42
2023-05-15T00:30:40.584Z,35.47
2023-05-15T00:31:42.293Z,32.13
2023-05-15T00:32:44.341Z,33.92
2023-05-15T00:33:46.149Z,37.47
2023-05-15T00:34:47.973Z,35.97
2023-05-15T00:35:49.685Z,38.88
2023-05-15T00:36:51.468Z,40.25
2023-05-15T00:37:53.176Z,34.13
2023-05-15T00:38:55.004Z,34.78
2023-05-15T00:39:56.720Z,35.05
2023-05-15T00:40:58.465Z,32.88
2023-05-15T00:42:02.313Z,32.45
2023-05-15T00:43:05.084Z,30.48
2023-05-15T00:44:07.444Z,33.70
2023-05-15T00:45:10.899Z,35.00
2023-05-15T00:46:13.301Z,33.35
2023-05-15T00:47:16.373Z,33.83
2023-05-15T00:48:22.666Z,33.00
2023-05-15T00:49:27.146Z,34.03
2023-05-15T00:50:29.595Z,30.65
2023-05-15T00:51:31.338Z,32.90
2023-05-15T00:52:33.313Z,31.80
2023-05-15T00:53:35.420Z,30.55
2023-05-15T00:54:37.314Z,29.92
2023-05-15T00:55:40.757Z,30.52
2023-05-15T00:56:45.083Z,30.48
2023-05-15T00:57:48.533Z,30.33
2023-05-15T00:58:52.143Z,32.10
2023-05-15T00:59:55.740Z,31.33
2023-05-15T01:00:57.572Z,31.65
2023-05-15T01:01:59.434Z,30.75
2023-05-15T01:03:02.103Z,32.38
2023-05-15T01:04:04.495Z,31.33
2023-05-15T01:05:08.179Z,28.13
2023-05-15T01:06:10.548Z,27.23
2023-05-15T01:07:13.178Z,25.38
2023-05-15T01:08:24.194Z,30.67
2023-05-15T01:09:28.715Z,25.50
2023-05-15T01:10:30.847Z,25.77
2023-05-15T01:11:38.704Z,25.15
2023-05-15T01:12:41.828Z,26.45
2023-05-15T01:13:44.552Z,24.40
2023-05-15T01:14:46.648Z,26.75
2023-05-15T01:15:49.868Z,27.70
2023-05-15T01:16:51.683Z,26.08
2023-05-15T01:17:53.423Z,33.03
2023-05-15T01:18:55.281Z,23.85
2023-05-15T01:19:59.025Z,26.75
2023-05-15T01:21:25.789Z,25.85
2023-05-15T01:23:16.079Z,25.75
2023-05-15T01:24:36.260Z,26.65
2023-05-15T01:25:54.015Z,27.73
2023-05-15T01:27:21.340Z,33.40
2023-05-15T01:28:30.881Z,26.33
2023-05-15T01:29:47.796Z,27.40
2023-05-15T01:30:52.747Z,30.65
2023-05-15T01:32:09.174Z,30.52
2023-05-15T01:33:29.993Z,22.10
2023-05-15T01:34:48.834Z,24.00
2023-05-15T01:36:01.535Z,28.63
2023-05-15T01:37:04.554Z,26.38
2023-05-15T01:38:34.035Z,25.98
2023-05-15T01:39:39.150Z,26.25
2023-05-15T01:40:42.320Z,28.05
2023-05-15T01:41:51.349Z,31.83
2023-05-15T01:43:01.824Z,34.78
2023-05-15T01:44:11.735Z,34.33
2023-05-15T01:45:14.121Z,30.25
2023-05-15T01:46:19.968Z,34.50
2023-05-15T01:47:28.117Z,37.53
2023-05-15T01:48:33.525Z,34.90
2023-05-15T01:49:37.200Z,39.03
2023-05-15T01:50:41.253Z,35.70
2023-05-15T01:51:45.736Z,37.63
2023-05-15T01:52:58.759Z,32.90
2023-05-15T01:54:00.868Z,34.47
2023-05-15T01:55:04.662Z,35.58
2023-05-15T01:56:09.404Z,39.38
2023-05-15T01:57:13.092Z,36.00
2023-05-15T01:58:15.912Z,37.95
2023-05-15T01:59:19.318Z,41.35
2023-05-15T02:00:22.241Z,40.65
2023-05-15T02:01:24.873Z,44.20
2023-05-15T02:02:28.226Z,42.17
2023-05-15T02:03:35.850Z,44.05
2023-05-15T02:04:38.624Z,42.38
2023-05-15T02:05:40.851Z,46.15
2023-05-15T02:06:43.418Z,42.80
2023-05-15T02:07:48.518Z,45.90
2023-05-15T02:08:51.619Z,46.35
2023-05-15T02:09:54.318Z,43.33
2023-05-15T02:10:58.617Z,43.13
2023-05-15T02:12:02.219Z,42.85
2023-05-15T02:13:07.576Z,39.38
2023-05-15T02:14:09.474Z,42.47
2023-05-15T02:15:12.196Z,37.65
2023-05-15T02:16:13.979Z,45.40
2023-05-15T02:17:16.372Z,39.25
2023-05-15T02:18:18.262Z,35.95
2023-05-15T02:19:20.041Z,40.70
2023-05-15T02:20:21.782Z,39.00
2023-05-15T02:21:23.497Z,36.53
2023-05-15T02:22:25.248Z,37.38
2023-05-15T02:23:27.214Z,35.63
2023-05-15T02:24:28.899Z,38.55
2023-05-15T02:25:45.550Z,34.85
2023-05-15T02:27:00.099Z,36.47
2023-05-15T02:28:05.327Z,33.40
2023-05-15T02:29:22.408Z,36.60
2023-05-15T02:30:46.301Z,39.22
2023-05-15T02:32:04.810Z,35.85
2023-05-15T02:33:17.110Z,35.50
2023-05-15T02:34:32.656Z,35.10
2023-05-15T02:35:48.648Z,37.08
2023-05-15T02:36:53.312Z,37.65
2023-05-15T02:38:00.718Z,33.80
2023-05-15T02:39:03.149Z,30.45
2023-05-15T02:40:07.889Z,30.73
2023-05-15T02:41:11.140Z,35.30
2023-05-15T02:42:14.415Z,32.70
2023-05-15T02:43:19.204Z,33.90
2023-05-15T02:44:22.804Z,30.42
2023-05-15T02:45:26.025Z,33.22
2023-05-15T02:46:28.541Z,29.38
2023-05-15T02:47:31.186Z,30.75
2023-05-15T02:48:35.254Z,30.92
2023-05-15T02:49:37.656Z,33.15
2023-05-15T02:50:39.609Z,38.78
2023-05-15T02:51:42.921Z,30.77
2023-05-15T02:52:44.595Z,37.17
2023-05-15T02:53:46.455Z,33.35
2023-05-15T02:54:48.143Z,30.90
2023-05-15T02:55:49.834Z,26.77
2023-05-15T02:56:51.645Z,31.48
2023-05-15T02:57:53.378Z,28.77
2023-05-15T02:58:55.852Z,36.70
2023-05-15T02:59:57.862Z,34.00
2023-05-15T03:00:59.636Z,39.00
2023-05-15T03:02:03.537Z,37.83
2023-05-15T03:03:05.360Z,33.25
2023-05-15T03:04:07.103Z,31.17
2023-05-15T03:05:09.153Z,37.10
2023-05-15T03:06:10.832Z,38.42
2023-05-15T03:07:14.500Z,44.22
2023-05-15T03:08:16.228Z,47.05
2023-05-15T03:09:18.087Z,36.97
2023-05-15T03:10:21.328Z,33.85
2023-05-15T03:11:23.088Z,33.97
2023-05-15T03:12:24.853Z,37.75
2023-05-15T03:13:26.548Z,35.60
2023-05-15T03:14:28.320Z,36.47
2023-05-15T03:15:30.076Z,36.33
2023-05-15T03:16:32.082Z,39.03
2023-05-15T03:17:33.987Z,36.97
2023-05-15T03:18:35.712Z,39.05
2023-05-15T03:19:37.430Z,41.90
2023-05-15T03:20:39.158Z,42.53
2023-05-15T03:21:40.867Z,36.22
2023-05-15T03:22:42.883Z,34.03
2023-05-15T03:23:44.599Z,37.00
2023-05-15T03:24:46.319Z,42.38
2023-05-15T03:25:48.016Z,38.67
2023-05-15T03:26:49.761Z,33.30
2023-05-15T03:27:51.505Z,35.78
2023-05-15T03:28:54.175Z,38.25
2023-05-15T03:29:57.202Z,35.33
2023-05-15T03:30:58.938Z,39.78
2023-05-15T03:32:00.759Z,36.38
2023-05-15T03:33:04.188Z,37.42
2023-05-15T03:34:05.947Z,42.63
2023-05-15T03:35:08.000Z,35.10
2023-05-15T03:36:09.754Z,38.45
2023-05-15T03:37:11.478Z,36.88
2023-05-15T03:38:13.202Z,35.88
2023-05-15T03:39:14.882Z,36.75
2023-05-15T03:40:16.760Z,33.17
2023-05-15T03:41:18.458Z,39.08
2023-05-15T03:42:23.599Z,31.77
2023-05-15T03:43:25.428Z,34.70
2023-05-15T03:44:27.095Z,39.45
2023-05-15T03:45:29.064Z,34.75
2023-05-15T03:46:31.144Z,35.53
2023-05-15T03:47:32.952Z,41.17
2023-05-15T03:48:34.710Z,40.22
2023-05-15T03:49:36.429Z,34.72
2023-05-15T03:50:39.332Z,33.88
2023-05-15T03:51:41.031Z,34.83
2023-05-15T03:52:42.750Z,35.55
2023-05-15T03:53:44.481Z,33.78
2023-05-15T03:54:46.246Z,37.28
2023-05-15T03:55:47.993Z,35.45
2023-05-15T03:56:49.758Z,41.97
2023-05-15T03:57:51.511Z,31.15
2023-05-15T03:58:53.660Z,36.72
2023-05-15T03:59:55.437Z,36.88
2023-05-15T04:00:57.169Z,34.65
2023-05-15T04:02:04.660Z,37.10
2023-05-15T04:03:08.473Z,35.42
2023-05-15T04:04:10.400Z,33.67
2023-05-15T04:05:12.190Z,34.10
2023-05-15T04:06:13.931Z,37.78
2023-05-15T04:07:15.626Z,35.67
2023-05-15T04:08:17.305Z,35.47
2023-05-15T04:09:19.032Z,35.45
2023-05-15T04:10:20.775Z,35.75
2023-05-15T04:11:23.173Z,37.45
2023-05-15T04:12:27.054Z,38.38
2023-05-15T04:13:28.788Z,39.42
2023-05-15T04:14:30.483Z,39.10
2023-05-15T04:15:32.224Z,39.67
2023-05-15T04:16:33.959Z,31.70
2023-05-15T04:17:35.802Z,35.00
2023-05-15T04:18:37.533Z,35.05
2023-05-15T04:19:41.144Z,36.00
2023-05-15T04:20:44.249Z,37.15
2023-05-15T04:21:45.951Z,33.42
2023-05-15T04:22:48.310Z,35.25
2023-05-15T04:23:50.030Z,37.47
2023-05-15T04:24:51.710Z,33.65
2023-05-15T04:25:53.869Z,36.30
2023-05-15T04:26:57.949Z,33.83
2023-05-15T04:27:59.709Z,36.42
2023-05-15T04:29:04.580Z,34.80
2023-05-15T04:30:08.039Z,37.05
2023-05-15T04:31:09.779Z,34.45
2023-05-15T04:32:12.951Z,42.50
2023-05-15T04:33:14.783Z,40.38
2023-05-15T04:34:17.112Z,36.25
2023-05-15T04:35:19.264Z,32.22
2023-05-15T04:36:21.192Z,41.38
2023-05-15T04:37:23.066Z,31.27
2023-05-15T04:38:24.864Z,34.42
2023-05-15T04:39:26.589Z,30.55
2023-05-15T04:40:29.286Z,30.38
2023-05-15T04:41:33.325Z,41.35
2023-05-15T04:42:37.741Z,35.83
2023-05-15T04:43:41.420Z,31.90
2023-05-15T04:44:44.812Z,28.27
2023-05-15T04:45:47.090Z,39.80
2023-05-15T04:46:48.833Z,36.10
2023-05-15T04:47:50.927Z,37.80
2023-05-15T04:48:52.679Z,35.95
2023-05-15T04:49:54.414Z,32.38
2023-05-15T04:50:56.101Z,42.28
2023-05-15T04:51:57.840Z,33.03
2023-05-15T04:52:59.572Z,34.53
2023-05-15T04:54:01.283Z,33.42
2023-05-15T04:55:03.589Z,31.77
2023-05-15T04:56:05.568Z,38.70
2023-05-15T04:57:07.298Z,38.08
2023-05-15T04:58:09.018Z,36.08
2023-05-15T04:59:11.120Z,34.25
2023-05-15T05:00:14.376Z,34.75
2023-05-15T05:01:16.375Z,37.70
2023-05-15T05:02:25.564Z,33.50
2023-05-15T05:03:27.422Z,36.97
2023-05-15T05:04:29.155Z,30.98
2023-05-15T05:05:30.850Z,38.65
2023-05-15T05:06:35.237Z,30.65
2023-05-15T05:07:37.064Z,31.50
2023-05-15T05:08:38.757Z,33.72
2023-05-15T05:09:40.766Z,34.55
2023-05-15T05:10:42.455Z,40.38
2023-05-15T05:11:44.223Z,33.92
2023-05-15T05:12:46.011Z,32.22
2023-05-15T05:13:47.947Z,34.45
2023-05-15T05:14:49.675Z,36.45
2023-05-15T05:15:51.379Z,31.90
2023-05-15T05:16:53.088Z,30.70
2023-05-15T05:17:54.889Z,32.72
2023-05-15T05:18:56.721Z,33.63
2023-05-15T05:19:58.463Z,29.50
2023-05-15T05:21:04.084Z,30.85
2023-05-15T05:22:06.332Z,30.90
2023-05-15T05:23:08.066Z,33.83
2023-05-15T05:24:09.805Z,34.92
2023-05-15T05:25:11.701Z,34.65
2023-05-15T05:26:13.558Z,35.15
2023-05-15T05:27:15.433Z,29.17
2023-05-15T05:28:17.244Z,30.30
2023-05-15T05:29:18.959Z,31.30
2023-05-15T05:30:22.411Z,31.45
2023-05-15T05:31:24.177Z,30.65
2023-05-15T05:32:25.991Z,34.53
2023-05-15T05:33:29.909Z,31.52
2023-05-15T05:34:31.639Z,30.52
2023-05-15T05:35:33.336Z,33.13
2023-05-15T05:36:37.082Z,31.70
2023-05-15T05:37:40.339Z,28.58
2023-05-15T05:38:43.290Z,27.50
2023-05-15T05:39:45.031Z,31.25
2023-05-15T05:40:46.711Z,33.83
2023-05-15T05:41:48.424Z,34.47
2023-05-15T05:42:50.212Z,26.83
2023-05-15T05:43:51.902Z,31.02
2023-05-15T05:44:53.706Z,31.13
2023-05-15T05:45:55.411Z,37.47
2023-05-15T05:46:57.150Z,31.83
2023-05-15T05:47:59.068Z,34.15
2023-05-15T05:49:00.888Z,26.63
2023-05-15T05:50:03.299Z,29.73
2023-05-15T05:51:05.056Z,33.20
2023-05-15T05:52:09.891Z,22.85
2023-05-15T05:53:11.806Z,22.98
2023-05-15T05:54:15.169Z,25.17
2023-05-15T05:55:17.080Z,29.55
2023-05-15T05:56:18.971Z,26.38
2023-05-15T05:57:20.722Z,29.17
2023-05-15T05:58:25.930Z,35.03
2023-05-15T05:59:31.161Z,33.28
2023-05-15T06:00:32.941Z,31.42
2023-05-15T06:01:34.799Z,30.23
2023-05-15T06:02:40.225Z,28.23
2023-05-15T06:03:43.807Z,28.17
2023-05-15T06:04:46.371Z,28.42
2023-05-15T06:05:48.770Z,31.40
2023-05-15T06:06:50.535Z,26.27
2023-05-15T06:07:53.077Z,23.83
2023-05-15T06:08:56.495Z,24.83
2023-05-15T06:09:58.361Z,22.23
2023-05-15T06:11:00.114Z,21.10
2023-05-15T06:12:04.738Z,23.20
2023-05-15T06:13:06.679Z,24.38
2023-05-15T06:14:08.565Z,24.10
2023-05-15T06:15:10.693Z,22.23
2023-05-15T06:16:12.398Z,23.17
2023-05-15T06:17:14.264Z,19.90
2023-05-15T06:18:16.064Z,22.50
2023-05-15T06:19:17.874Z,25.80
2023-05-15T06:20:19.840Z,26.58
2023-05-15T06:21:22.387Z,28.67
2023-05-15T06:22:24.276Z,24.95
2023-05-15T06:23:27.039Z,25.13
2023-05-15T06:24:28.754Z,26.90
2023-05-15T06:25:30.970Z,25.75
2023-05-15T06:26:32.758Z,24.40
2023-05-15T06:27:34.666Z,22.48
2023-05-15T06:28:36.347Z,22.23
2023-05-15T06:29:38.080Z,24.05
2023-05-15T06:30:39.809Z,26.10
2023-05-15T06:31:41.571Z,23.17
2023-05-15T06:32:43.321Z,18.42
2023-05-15T06:33:45.079Z,15.48
2023-05-15T06:34:46.819Z,19.27
2023-05-15T06:35:48.712Z,16.08
2023-05-15T06:36:50.527Z,19.80
2023-05-15T06:37:53.232Z,13.23
2023-05-15T06:38:54.982Z,19.33
2023-05-15T06:39:56.655Z,12.75
2023-05-15T06:41:00.708Z,13.77
2023-05-15T06:42:02.617Z,14.32
2023-05-15T06:43:04.326Z,13.45
2023-05-15T06:44:06.064Z,12.38
2023-05-15T06:45:08.646Z,15.27
2023-05-15T06:46:10.489Z,14.13
2023-05-15T06:47:12.435Z,16.65
2023-05-15T06:48:14.345Z,15.18
2023-05-15T06:49:16.089Z,13.88
2023-05-15T06:50:20.663Z,13.73
2023-05-15T06:51:22.388Z,11.85
2023-05-15T06:52:25.921Z,14.45
2023-05-15T06:53:29.358Z,15.85
2023-05-15T06:54:31.189Z,17.23
2023-05-15T06:55:34.753Z,12.75
2023-05-15T06:56:36.473Z,16.15
2023-05-15T06:57:38.745Z,14.13
2023-05-15T06:58:40.410Z,15.93
2023-05-15T06:59:42.095Z,16.20
2023-05-15T07:00:44.375Z,14.50
2023-05-15T07:01:46.125Z,19.05
2023-05-15T07:02:47.893Z,15.30
2023-05-15T07:03:49.619Z,14.40
2023-05-15T07:04:51.876Z,16.83
2023-05-15T07:05:53.928Z,15.82
2023-05-15T07:06:55.661Z,13.85
2023-05-15T07:07:57.369Z,14.00
2023-05-15T07:08:59.757Z,17.63
2023-05-15T07:10:01.502Z,13.55
2023-05-15T07:11:03.324Z,17.50
2023-05-15T07:12:05.387Z,15.05
2023-05-15T07:13:07.102Z,15.32
2023-05-15T07:14:08.901Z,17.25
2023-05-15T07:15:10.947Z,16.10
2023-05-15T07:16:12.660Z,15.98
2023-05-15T07:17:14.386Z,17.20
2023-05-15T07:18:16.300Z,17.13
2023-05-15T07:19:21.189Z,14.07
2023-05-15T07:20:23.788Z,16.25
2023-05-15T07:21:26.459Z,21.35
2023-05-15T07:22:29.203Z,16.23
2023-05-15T07:23:31.021Z,18.75
2023-05-15T07:24:32.835Z,16.27
2023-05-15T07:25:34.622Z,14.20
2023-05-15T07:26:46.635Z,14.68
2023-05-15T07:27:58.673Z,14.93
2023-05-15T07:29:00.443Z,19.83
2023-05-15T07:30:04.176Z,18.90
2023-05-15T07:31:06.105Z,17.40
2023-05-15T07:32:08.042Z,16.75
2023-05-15T07:33:09.784Z,17.40
2023-05-15T07:34:11.886Z,21.10
2023-05-15T07:35:13.744Z,21.15
2023-05-15T07:36:15.474Z,17.33
2023-05-15T07:37:17.178Z,22.08
2023-05-15T07:38:19.054Z,19.17
2023-05-15T07:39:20.952Z,17.92
2023-05-15T07:40:22.695Z,19.58
2023-05-15T07:41:24.457Z,19.00
2023-05-15T07:42:26.376Z,17.90
2023-05-15T07:43:28.105Z,20.23
2023-05-15T07:44:29.849Z,20.33
2023-05-15T07:45:31.593Z,17.85
2023-05-15T07:46:34.007Z,17.02
2023-05-15T07:47:36.327Z,18.63
2023-05-15T07:48:38.083Z,15.07
2023-05-15T07:49:39.783Z,17.52
2023-05-15T07:50:41.674Z,15.63
2023-05-15T07:51:43.441Z,17.20
2023-05-15T07:52:45.190Z,15.52
2023-05-15T07:53:47.224Z,18.00
2023-05-15T07:54:49.712Z,18.67
2023-05-15T07:55:52.046Z,18.67
2023-05-15T07:56:54.355Z,16.98
2023-05-15T07:57:56.187Z,18.27
2023-05-15T07:58:58.054Z,15.18
2023-05-15T07:59:59.821Z,17.95
2023-05-15T08:01:01.613Z,16.67
2023-05-15T08:02:03.526Z,17.67
2023-05-15T08:03:05.569Z,19.17
2023-05-15T08:04:09.235Z,18.10
2023-05-15T08:05:11.001Z,16.50
2023-05-15T08:06:15.061Z,19.75
2023-05-15T08:07:16.905Z,16.92
2023-05-15T08:08:18.648Z,19.08
2023-05-15T08:09:20.333Z,15.90
2023-05-15T08:10:22.409Z,18.17
2023-05-15T08:11:24.116Z,19.05
2023-05-15T08:12:26.935Z,18.23
2023-05-15T08:13:28.957Z,20.08
2023-05-15T08:14:30.760Z,19.52
2023-05-15T08:15:33.076Z,16.52
2023-05-15T08:16:34.976Z,16.70
2023-05-15T08:17:36.692Z,16.23
2023-05-15T08:18:38.435Z,17.55
2023-05-15T08:19:40.110Z,15.60
2023-05-15T08:20:41.822Z,16.38
2023-05-15T08:21:43.495Z,20.38
2023-05-15T08:22:45.168Z,19.23
2023-05-15T08:23:46.858Z,19.77
2023-05-15T08:24:49.171Z,15.77
2023-05-15T08:25:51.039Z,16.40
2023-05-15T08:26:52.714Z,19.35
2023-05-15T08:27:54.459Z,19.48
2023-05-15T08:28:56.183Z,20.67
2023-05-15T08:29:57.932Z,20.63
2023-05-15T08:30:59.652Z,19.33
2023-05-15T08:32:01.638Z,17.58
2023-05-15T08:33:03.351Z,18.48
2023-05-15T08:34:05.114Z,17.48
2023-05-15T08:35:07.557Z,19.25
2023-05-15T08:36:09.626Z,19.80
2023-05-15T08:37:11.410Z,24.58
2023-05-15T08:38:13.168Z,21.42
2023-05-15T08:39:14.842Z,18.35
2023-05-15T08:40:17.009Z,26.52
2023-05-15T08:41:40.164Z,19.50
2023-05-15T08:42:48.009Z,21.35
2023-05-15T08:43:52.226Z,23.00
2023-05-15T08:44:55.902Z,22.25
2023-05-15T08:45:58.409Z,24.35
2023-05-15T08:47:00.969Z,25.85
2023-05-15T08:48:10.005Z,22.58
2023-05-15T08:49:20.194Z,25.10
2023-05-15T08:50:23.889Z,21.55
2023-05-15T08:51:28.165Z,21.60
2023-05-15T08:52:30.755Z,23.92
2023-05-15T08:53:32.551Z,23.17
2023-05-15T08:54:35.297Z,22.10
2023-05-15T08:55:37.012Z,23.02
2023-05-15T08:56:39.025Z,24.83
2023-05-15T08:57:41.675Z,24.10
2023-05-15T08:58:43.666Z,22.27
2023-05-15T08:59:46.740Z,22.92
2023-05-15T09:00:49.654Z,23.25
2023-05-15T09:01:52.381Z,23.48
2023-05-15T09:02:54.871Z,20.52
2023-05-15T09:03:57.001Z,19.42
2023-05-15T09:04:58.705Z,21.30
2023-05-15T09:06:01.772Z,19.92
2023-05-15T09:07:04.339Z,21.92
2023-05-15T09:08:08.323Z,20.33
2023-05-15T09:09:13.404Z,27.10
2023-05-15T09:10:16.391Z,25.40
2023-05-15T09:11:18.373Z,24.67
2023-05-15T09:12:21.160Z,23.10
2023-05-15T09:13:22.922Z,22.52
2023-05-15T09:14:24.677Z,24.55
2023-05-15T09:15:27.855Z,30.17
2023-05-15T09:16:29.808Z,25.65
2023-05-15T09:17:31.710Z,25.83
2023-05-15T09:18:34.133Z,21.80
2023-05-15T09:19:36.343Z,25.27
2023-05-15T09:20:38.699Z,23.77
2023-05-15T09:21:40.400Z,26.33
2023-05-15T09:22:42.102Z,29.27
2023-05-15T09:23:43.845Z,24.85
2023-05-15T09:24:48.395Z,24.80
2023-05-15T09:25:53.743Z,21.48
2023-05-15T09:27:03.280Z,21.95
2023-05-15T09:28:10.878Z,24.70
2023-05-15T09:29:18.744Z,20.75
2023-05-15T09:30:21.374Z,20.92
2023-05-15T09:31:23.153Z,21.08
2023-05-15T09:32:27.447Z,21.75
2023-05-15T09:33:42.660Z,20.27
2023-05-15T09:34:45.142Z,21.35
2023-05-15T09:35:47.023Z,22.77
2023-05-15T09:36:48.723Z,21.65
2023-05-15T09:37:59.871Z,24.50
2023-05-15T09:40:14.174Z,21.38
2023-05-15T09:41:25.081Z,24.00
2023-05-15T09:42:27.231Z,28.35
2023-05-15T09:43:30.810Z,20.50
2023-05-15T09:44:33.924Z,23.63
2023-05-15T09:45:35.631Z,26.50
2023-05-15T09:46:37.566Z,20.75
2023-05-15T09:47:39.590Z,24.58
2023-05-15T09:48:41.607Z,24.83
2023-05-15T09:49:47.259Z,26.88
2023-05-15T09:50:49.630Z,24.52
2023-05-15T09:51:51.902Z,24.75
2023-05-15T09:52:53.838Z,24.73
2023-05-15T09:53:55.534Z,26.42
2023-05-15T09:54:58.187Z,25.95
2023-05-15T09:56:00.121Z,24.38
2023-05-15T09:57:12.692Z,25.00
2023-05-15T09:58:16.360Z,22.15
2023-05-15T09:59:21.676Z,26.80
2023-05-15T10:00:24.056Z,23.08
2023-05-15T10:01:27.912Z,21.77
2023-05-15T10:02:34.857Z,24.35
2023-05-15T10:03:36.645Z,23.38
2023-05-15T10:04:38.755Z,27.58
2023-05-15T10:05:43.516Z,25.52
2023-05-15T10:06:48.457Z,25.73
2023-05-15T10:07:55.599Z,27.00
2023-05-15T10:08:57.907Z,29.88
2023-05-15T10:10:01.317Z,24.85
2023-05-15T10:11:03.849Z,24.17
2023-05-15T10:12:08.372Z,22.63
2023-05-15T10:13:11.226Z,22.70
2023-05-15T10:14:14.382Z,28.83
2023-05-15T10:15:18.028Z,26.25
2023-05-15T10:16:22.410Z,23.75
2023-05-15T10:17:25.437Z,23.55
2023-05-15T10:18:30.608Z,23.25
2023-05-15T10:19:32.856Z,22.90
2023-05-15T10:20:36.069Z,25.65
2023-05-15T10:21:41.684Z,22.40
2023-05-15T10:22:46.877Z,26.08
2023-05-15T10:23:50.986Z,25.05
2023-05-15T10:25:17.486Z,21.98
2023-05-15T10:26:29.312Z,24.45
2023-05-15T10:27:32.680Z,24.73
2023-05-15T10:28:36.464Z,23.58
2023-05-15T10:29:38.514Z,22.75
2023-05-15T10:30:40.603Z,23.38
2023-05-15T10:31:42.541Z,23.20
2023-05-15T10:32:45.347Z,21.50
2023-05-15T10:33:47.739Z,21.05
2023-05-15T10:34:51.435Z,23.65
2023-05-15T10:35:54.208Z,21.83
2023-05-15T10:36:56.651Z,22.98
2023-05-15T10:37:58.709Z,22.27
2023-05-15T10:39:01.838Z,23.63
2023-05-15T10:40:06.522Z,20.92
2023-05-15T10:41:17.809Z,23.85
2023-05-15T10:42:21.324Z,21.92
2023-05-15T10:43:23.865Z,22.08
2023-05-15T10:44:25.688Z,20.90
2023-05-15T10:45:29.306Z,22.00
2023-05-15T10:46:33.709Z,20.25
2023-05-15T10:47:37.373Z,20.88
2023-05-15T10:48:40.096Z,25.13
2023-05-15T10:49:41.920Z,21.65
2023-05-15T10:50:43.675Z,22.35
2023-05-15T10:51:45.419Z,22.00
2023-05-15T10:52:52.267Z,25.55
2023-05-15T10:53:55.460Z,20.48
2023-05-15T10:54:57.282Z,20.50
2023-05-15T10:55:59.063Z,22.42
2023-05-15T10:57:00.893Z,27.95
2023-05-15T10:58:08.368Z,25.20
2023-05-15T10:59:11.663Z,23.65
2023-05-15T11:00:22.186Z,21.40
2023-05-15T11:01:36.294Z,23.15
2023-05-15T11:02:39.271Z,22.48
2023-05-15T11:03:49.361Z,25.33
2023-05-15T11:04:56.275Z,20.05
2023-05-15T11:06:08.836Z,21.23
2023-05-15T11:07:18.342Z,22.67
2023-05-15T11:08:21.733Z,23.92
2023-05-15T11:09:38.814Z,21.88
2023-05-15T11:10:40.686Z,19.90
2023-05-15T11:12:00.369Z,18.77
2023-05-15T11:13:02.802Z,20.23
2023-05-15T11:14:10.004Z,19.52
2023-05-15T11:15:12.458Z,20.50
2023-05-15T11:16:14.622Z,23.83
2023-05-15T11:17:17.659Z,21.10
2023-05-15T11:18:20.753Z,18.60
2023-05-15T11:19:28.797Z,20.35
2023-05-15T11:20:53.728Z,20.15
2023-05-15T11:22:17.052Z,20.73
2023-05-15T11:23:23.063Z,19.60
2023-05-15T11:24:31.895Z,20.08
2023-05-15T11:25:36.389Z,22.40
2023-05-15T11:26:43.125Z,19.77
2023-05-15T11:27:46.439Z,20.80
2023-05-15T11:28:48.278Z,20.10
2023-05-15T11:30:08.910Z,20.13
2023-05-15T11:31:10.836Z,20.30
2023-05-15T11:32:32.590Z,20.15
2023-05-15T11:33:34.415Z,20.33
2023-05-15T11:34:41.734Z,22.48
2023-05-15T11:35:47.806Z,22.27
2023-05-15T11:36:49.614Z,22.48
2023-05-15T11:37:58.538Z,24.27
2023-05-15T11:39:01.454Z,21.20
2023-05-15T11:40:07.151Z,21.20
2023-05-15T11:41:32.092Z,20.30
2023-05-15T11:42:33.826Z,22.15
2023-05-15T11:43:36.573Z,19.75
2023-05-15T11:44:39.690Z,23.02
2023-05-15T11:45:41.573Z,23.60
2023-05-15T11:46:44.317Z,22.33
2023-05-15T11:47:46.133Z,22.00
2023-05-15T11:48:48.047Z,20.63
2023-05-15T11:49:50.171Z,25.65
2023-05-15T11:50:55.312Z,22.80
2023-05-15T11:51:57.062Z,21.05
2023-05-15T11:53:01.978Z,24.52
2023-05-15T11:54:06.252Z,21.63
2023-05-15T11:55:08.563Z,20.70
2023-05-15T11:56:17.394Z,23.05
2023-05-15T11:57:20.482Z,19.98
2023-05-15T11:58:23.989Z,22.15
2023-05-15T11:59:27.639Z,24.58
2023-05-15T12:00:29.384Z,23.23
2023-05-15T12:01:47.524Z,22.88
2023-05-15T12:02:49.464Z,24.92
2023-05-15T12:03:54.446Z,22.23
2023-05-15T12:04:56.691Z,22.20
2023-05-15T12:06:00.329Z,22.95
2023-05-15T12:07:03.379Z,24.02
2023-05-15T12:08:10.369Z,22.15
2023-05-15T12:09:27.414Z,21.63
2023-05-15T12:10:30.194Z,23.80
2023-05-15T12:11:32.386Z,22.10
2023-05-15T12:12:36.620Z,24.00
2023-05-15T12:13:38.346Z,19.58
2023-05-15T12:14:40.154Z,25.92
2023-05-15T12:15:46.972Z,22.63
2023-05-15T12:16:52.370Z,20.48
2023-05-15T12:17:54.198Z,22.38
2023-05-15T12:18:59.775Z,20.48
2023-05-15T12:20:01.808Z,22.55
2023-05-15T12:21:05.448Z,22.13
2023-05-15T12:22:08.607Z,21.20
2023-05-15T12:23:10.338Z,20.95
2023-05-15T12:24:13.069Z,20.42
2023-05-15T12:25:15.776Z,21.10
2023-05-15T12:26:17.721Z,21.23
2023-05-15T12:27:19.621Z,21.25
2023-05-15T12:28:22.047Z,21.73
2023-05-15T12:29:24.224Z,22.10
2023-05-15T12:30:26.987Z,28.52
2023-05-15T12:31:29.356Z,22.58
2023-05-15T12:32:36.859Z,22.98
2023-05-15T12:33:39.028Z,22.40
2023-05-15T12:34:41.118Z,23.40
2023-05-15T12:35:45.645Z,24.00
2023-05-15T12:36:47.379Z,21.08
2023-05-15T12:37:49.112Z,22.50
2023-05-15T12:38:51.396Z,21.95
2023-05-15T12:40:00.034Z,25.45
2023-05-15T12:41:01.861Z,20.08
2023-05-15T12:42:03.989Z,19.77
2023-05-15T12:43:08.952Z,24.23
2023-05-15T12:44:20.575Z,20.60
2023-05-15T12:45:23.555Z,20.23
2023-05-15T12:46:29.567Z,24.23
2023-05-15T12:47:31.407Z,21.77
2023-05-15T12:48:33.321Z,24.95
2023-05-15T12:49:38.619Z,25.33
2023-05-15T12:50:40.604Z,23.75
2023-05-15T12:51:45.364Z,23.23
2023-05-15T12:52:50.026Z,22.65
2023-05-15T12:53:55.296Z,23.13
2023-05-15T12:55:00.713Z,28.33
2023-05-15T12:56:03.001Z,22.73
2023-05-15T12:57:04.877Z,27.60
2023-05-15T12:58:12.469Z,23.23
2023-05-15T12:59:14.318Z,27.92
2023-05-15T13:00:16.582Z,24.02
2023-05-15T13:01:18.636Z,25.77
2023-05-15T13:02:23.075Z,24.42
2023-05-15T13:03:29.398Z,23.27
2023-05-15T13:04:33.526Z,22.45
2023-05-15T13:05:36.583Z,25.48
2023-05-15T13:06:46.304Z,20.65
2023-05-15T13:07:49.091Z,23.48
2023-05-15T13:08:50.859Z,23.33
2023-05-15T13:10:09.315Z,22.10
2023-05-15T13:11:15.660Z,22.20
2023-05-15T13:12:20.175Z,22.98
2023-05-15T13:13:21.875Z,23.30
2023-05-15T13:14:27.334Z,24.10
2023-05-15T13:15:40.118Z,23.33
2023-05-15T13:16:43.373Z,26.02
2023-05-15T13:17:45.778Z,22.45
2023-05-15T13:18:47.637Z,22.80
2023-05-15T13:19:49.473Z,21.75
2023-05-15T13:20:54.184Z,20.60
2023-05-15T13:21:55.926Z,23.25
2023-05-15T13:22:57.735Z,17.83
2023-05-15T13:23:59.435Z,21.35
2023-05-15T13:25:01.277Z,22.80
2023-05-15T13:26:03.524Z,21.30
2023-05-15T13:27:05.448Z,20.65
2023-05-15T13:28:08.993Z,21.55
2023-05-15T13:29:10.718Z,21.23
2023-05-15T13:30:13.225Z,25.80
2023-05-15T13:31:15.136Z,22.38
2023-05-15T13:32:17.283Z,24.50
2023-05-15T13:33:19.059Z,22.23
2023-05-15T13:34:21.268Z,28.83
2023-05-15T13:35:23.307Z,23.35
2023-05-15T13:36:25.037Z,21.13
2023-05-15T13:37:26.714Z,21.67
2023-05-15T13:38:28.511Z,21.90
2023-05-15T13:39:30.193Z,27.70
2023-05-15T13:40:38.077Z,30.42
2023-05-15T13:41:40.764Z,24.02